createdAt,value
2018-08-11T00:00:30.810Z,100731.34
2018-08-11T00:05:34.361Z,100727.84
2018-08-11T00:10:37.923Z,100729.02
2018-08-11T00:15:41.637Z,100736.70
2018-08-11T00:20:45.224Z,100747.11
2018-08-11T00:25:48.844Z,100728.13
2018-08-11T00:30:52.389Z,100723.03
2018-08-11T00:35:55.909Z,100723.20
2018-08-11T00:40:59.517Z,100718.09
2018-08-11T00:46:03.808Z,100702.99
2018-08-11T00:51:07.529Z,100711.98
2018-08-11T00:56:11.073Z,100708.88
2018-08-11T01:01:14.975Z,100704.92
2018-08-11T01:06:18.585Z,100694.56
2018-08-11T01:11:22.132Z,100697.78
2018-08-11T01:16:25.652Z,100688.43
2018-08-11T01:21:29.397Z,100687.62
2018-08-11T01:26:33.160Z,100688.36
2018-08-11T01:31:36.756Z,100684.06
2018-08-11T01:36:40.495Z,100693.95
2018-08-11T01:41:44.052Z,100685.53
2018-08-11T01:46:47.573Z,100685.28
2018-08-11T01:51:51.162Z,100681.52
2018-08-11T01:56:54.862Z,100678.77
2018-08-11T02:01:58.389Z,100666.75
2018-08-11T02:07:02.075Z,100662.55
2018-08-11T02:12:05.820Z,100659.70
2018-08-11T02:17:09.385Z,100653.66
2018-08-11T02:22:12.968Z,100652.70
2018-08-11T02:27:16.510Z,100648.23
2018-08-11T02:32:20.015Z,100637.33
2018-08-11T02:37:23.682Z,100634.14
2018-08-11T02:42:27.229Z,100643.39
2018-08-11T02:47:30.849Z,100648.13
2018-08-11T02:52:34.447Z,100630.17
2018-08-11T02:57:37.939Z,100622.14
2018-08-11T03:02:41.605Z,100614.44
2018-08-11T03:07:45.286Z,100608.03
2018-08-11T03:12:48.865Z,100620.25
2018-08-11T03:17:52.378Z,100609.06
2018-08-11T03:22:56.840Z,100620.33
2018-08-11T03:28:00.441Z,100613.09
2018-08-11T03:33:03.981Z,100612.41
2018-08-11T03:38:07.997Z,100611.75
2018-08-11T03:43:11.560Z,100614.73
2018-08-11T03:48:15.111Z,100618.20
2018-08-11T03:53:18.633Z,100617.42
2018-08-11T03:58:22.774Z,100621.14
2018-08-11T04:03:26.385Z,100612.59
2018-08-11T04:08:30.077Z,100620.66
2018-08-11T04:13:33.626Z,100622.63
2018-08-11T04:18:37.137Z,100615.42
2018-08-11T04:23:40.641Z,100613.63
2018-08-11T04:28:44.221Z,100604.20
2018-08-11T04:33:47.816Z,100617.66
2018-08-11T04:38:51.334Z,100626.97
2018-08-11T04:43:54.845Z,100603.44
2018-08-11T04:48:58.410Z,100609.76
2018-08-11T04:54:01.995Z,100600.11
2018-08-11T04:59:05.547Z,100610.07
2018-08-11T05:04:09.018Z,100599.37
2018-08-11T05:09:12.836Z,100606.97
2018-08-11T05:14:16.662Z,100608.14
2018-08-11T05:19:20.159Z,100607.52
2018-08-11T05:24:24.562Z,100618.12
2018-08-11T05:29:28.142Z,100618.48
2018-08-11T05:34:31.748Z,100629.55
2018-08-11T05:39:35.291Z,100625.60
2018-08-11T05:44:38.813Z,100626.48
2018-08-11T05:49:42.323Z,100607.98
2018-08-11T05:54:45.754Z,100608.17
2018-08-11T05:59:49.395Z,100614.84
2018-08-11T06:04:52.998Z,100623.16
2018-08-11T06:15:12.331Z,100629.59
2018-08-11T06:20:15.965Z,100621.77
2018-08-11T06:25:19.563Z,100624.92
2018-08-11T06:30:23.133Z,100621.32
2018-08-11T06:35:27.496Z,100609.89
2018-08-11T06:40:31.908Z,100613.49
2018-08-11T06:45:35.574Z,100619.45
2018-08-11T06:50:39.057Z,100612.25
2018-08-11T06:55:42.639Z,100621.27
2018-08-11T07:00:46.137Z,100631.77
2018-08-11T07:05:49.688Z,100627.78
2018-08-11T07:10:53.211Z,100633.62
2018-08-11T07:15:56.849Z,100642.00
2018-08-11T07:21:00.384Z,100646.95
2018-08-11T07:26:03.950Z,100640.02
2018-08-11T07:31:07.492Z,100632.22
2018-08-11T07:36:11.075Z,100635.20
2018-08-11T07:41:14.652Z,100629.04
2018-08-11T07:46:18.651Z,100631.95
2018-08-11T07:51:22.325Z,100644.92
2018-08-11T07:56:25.825Z,100629.25
2018-08-11T08:01:29.524Z,100631.59
2018-08-11T08:11:39.809Z,100634.69
2018-08-11T08:16:43.626Z,100628.48
2018-08-11T08:21:47.154Z,100620.20
2018-08-11T08:26:50.801Z,100617.23
2018-08-11T08:31:54.901Z,100624.06
2018-08-11T08:36:59.007Z,100630.47
2018-08-11T08:42:02.784Z,100624.23
2018-08-11T08:47:06.540Z,100636.99
2018-08-11T08:52:10.260Z,100635.48
2018-08-11T08:57:13.852Z,100632.52
2018-08-11T09:02:17.649Z,100636.34
2018-08-11T09:07:21.326Z,100617.08
2018-08-11T09:12:25.058Z,100628.20
2018-08-11T09:17:28.633Z,100619.70
2018-08-11T09:22:38.484Z,100635.46
2018-08-11T09:27:42.096Z,100625.42
2018-08-11T09:32:51.981Z,100628.23
2018-08-11T09:37:55.551Z,100630.42
2018-08-11T09:42:59.383Z,100642.60
2018-08-11T09:48:02.939Z,100637.13
2018-08-11T09:53:06.699Z,100639.59
2018-08-11T09:58:10.326Z,100662.09
2018-08-11T10:03:13.953Z,100641.41
2018-08-11T10:08:17.437Z,100632.89
2018-08-11T10:13:21.014Z,100626.55
2018-08-11T10:18:24.711Z,100621.81
2018-08-11T10:23:28.242Z,100623.95
2018-08-11T10:28:32.058Z,100620.97
2018-08-11T10:33:35.647Z,100613.95
2018-08-11T10:38:39.266Z,100623.56
2018-08-11T10:43:42.819Z,100632.27
2018-08-11T10:48:46.492Z,100627.70
2018-08-11T10:53:50.122Z,100625.62
2018-08-11T10:58:53.736Z,100646.41
2018-08-11T11:03:57.386Z,100653.44
2018-08-11T11:09:01.033Z,100623.83
2018-08-11T11:14:04.704Z,100630.44
2018-08-11T11:19:09.594Z,100623.29
2018-08-11T11:24:13.223Z,100629.09
2018-08-11T11:29:16.789Z,100612.98
2018-08-11T11:34:22.501Z,100603.78
2018-08-11T11:39:28.158Z,100602.69
2018-08-11T11:44:31.725Z,100606.72
2018-08-11T11:49:35.271Z,100614.61
2018-08-11T11:54:38.855Z,100610.01
2018-08-11T11:59:42.422Z,100613.02
2018-08-11T12:04:46.649Z,100617.58
2018-08-11T12:09:50.237Z,100616.54
2018-08-11T12:14:53.993Z,100595.75
2018-08-11T12:19:59.585Z,100592.83
2018-08-11T12:25:03.416Z,100593.87
2018-08-11T12:30:09.200Z,100606.04
2018-08-11T12:35:12.863Z,100594.97
2018-08-11T12:40:16.407Z,100570.70
2018-08-11T12:45:20.015Z,100582.77
2018-08-11T12:50:23.647Z,100580.09
2018-08-11T12:55:27.155Z,100594.36
2018-08-11T13:00:36.105Z,100592.70
2018-08-11T13:05:39.674Z,100600.39
2018-08-11T13:10:43.197Z,100589.53
2018-08-11T13:15:46.833Z,100577.89
2018-08-11T13:20:50.479Z,100584.78
2018-08-11T13:25:54.044Z,100592.80
2018-08-11T13:30:57.613Z,100576.95
2018-08-11T13:36:01.154Z,100574.91
2018-08-11T13:41:04.689Z,100587.56
2018-08-11T13:46:08.297Z,100565.80
2018-08-11T13:51:11.856Z,100585.84
2018-08-11T13:56:15.982Z,100570.98
2018-08-11T14:01:19.531Z,100570.64
2018-08-11T14:06:23.091Z,100571.53
2018-08-11T14:11:26.645Z,100570.23
2018-08-11T14:16:30.198Z,100569.98
2018-08-11T14:21:34.296Z,100581.46
2018-08-11T14:26:38.016Z,100565.48
2018-08-11T14:31:48.127Z,100568.94
2018-08-11T14:36:51.688Z,100564.85
2018-08-11T14:41:56.115Z,100569.28
2018-08-11T14:46:59.838Z,100565.30
2018-08-11T14:52:03.737Z,100557.98
2018-08-11T14:57:07.344Z,100581.47
2018-08-11T15:02:11.047Z,100560.70
2018-08-11T15:07:15.504Z,100581.27
2018-08-11T15:12:19.055Z,100563.89
2018-08-11T15:17:22.948Z,100562.55
2018-08-11T15:22:27.529Z,100557.55
2018-08-11T15:27:31.393Z,100552.09
2018-08-11T15:32:34.936Z,100558.91
2018-08-11T15:37:38.670Z,100541.50
2018-08-11T15:42:42.245Z,100533.07
2018-08-11T15:47:45.848Z,100535.84
2018-08-11T15:52:49.424Z,100540.71
2018-08-11T15:57:52.998Z,100534.80
2018-08-11T16:02:56.540Z,100529.70
2018-08-11T16:08:00.417Z,100548.75
2018-08-11T16:13:04.171Z,100532.64
2018-08-11T16:18:07.841Z,100543.02
2018-08-11T16:23:12.002Z,100542.93
2018-08-11T16:28:15.522Z,100539.73
2018-08-11T16:33:19.038Z,100544.45
2018-08-11T16:38:22.622Z,100539.30
2018-08-11T16:43:26.346Z,100541.39
2018-08-11T16:48:30.072Z,100534.44
2018-08-11T16:53:33.593Z,100541.63
2018-08-11T16:58:37.190Z,100549.39
2018-08-11T17:03:41.555Z,100551.14
2018-08-11T17:08:45.357Z,100554.92
2018-08-11T17:13:49.881Z,100551.91
2018-08-11T17:18:53.693Z,100555.55
2018-08-11T17:23:57.308Z,100552.67
2018-08-11T17:29:00.791Z,100545.01
2018-08-11T17:34:04.716Z,100553.48
2018-08-11T17:39:10.066Z,100553.78
2018-08-11T17:44:13.610Z,100563.45
2018-08-11T17:49:17.371Z,100571.19
2018-08-11T17:54:20.860Z,100585.75
2018-08-11T17:59:24.361Z,100587.77
2018-08-11T18:04:28.680Z,100590.73
2018-08-11T18:09:32.334Z,100595.02
2018-08-11T18:14:35.917Z,100597.88
2018-08-11T18:19:39.903Z,100597.03
2018-08-11T18:24:43.793Z,100599.67
2018-08-11T18:29:47.330Z,100608.28
2018-08-11T18:34:51.063Z,100620.08
2018-08-11T18:39:54.905Z,100632.39
2018-08-11T18:44:58.769Z,100639.07
2018-08-11T18:50:02.624Z,100643.04
2018-08-11T18:55:08.124Z,100643.20
2018-08-11T19:00:17.694Z,100655.50
2018-08-11T19:05:21.801Z,100660.54
2018-08-11T19:10:25.616Z,100664.48
2018-08-11T19:15:29.698Z,100672.73
2018-08-11T19:20:33.540Z,100683.02
2018-08-11T19:25:38.067Z,100689.16
2018-08-11T19:30:41.485Z,100689.77
2018-08-11T19:35:45.022Z,100693.55
2018-08-11T19:40:48.601Z,100690.73
2018-08-11T19:45:53.677Z,100693.80
2018-08-11T19:50:57.300Z,100695.19
2018-08-11T19:56:01.030Z,100694.84
2018-08-11T20:01:04.497Z,100700.55
2018-08-11T20:06:08.101Z,100700.66
2018-08-11T20:11:12.216Z,100702.76
2018-08-11T20:16:16.352Z,100703.77
2018-08-11T20:21:19.886Z,100705.57
2018-08-11T20:26:24.829Z,100699.45
2018-08-11T20:31:29.686Z,100706.44
2018-08-11T20:36:33.666Z,100711.83
2018-08-11T20:41:37.613Z,100712.94
2018-08-11T20:46:41.489Z,100721.34
2018-08-11T20:51:45.117Z,100723.58
2018-08-11T20:56:48.670Z,100721.83
2018-08-11T21:01:53.436Z,100728.44
2018-08-11T21:06:57.224Z,100732.94
2018-08-11T21:12:00.722Z,100729.71
2018-08-11T21:17:06.490Z,100736.93
2018-08-11T21:22:12.564Z,100740.20
2018-08-11T21:27:17.181Z,100745.02
2018-08-11T21:32:22.962Z,100739.29
2018-08-11T21:37:28.807Z,100751.12
2018-08-11T21:42:34.230Z,100746.64
2018-08-11T21:47:38.805Z,100747.59
2018-08-11T21:52:44.997Z,100744.80
2018-08-11T21:57:52.111Z,100741.87
2018-08-11T22:02:57.412Z,100745.77
2018-08-11T22:08:02.778Z,100738.03
2018-08-11T22:13:06.524Z,100740.34
2018-08-11T22:18:10.113Z,100735.06
2018-08-11T22:23:13.974Z,100741.25
2018-08-11T22:28:17.805Z,100740.67
2018-08-11T22:33:21.484Z,100746.64
2018-08-11T22:38:25.126Z,100742.45
2018-08-11T22:43:28.772Z,100746.84
2018-08-11T22:48:32.501Z,100750.06
2018-08-11T22:53:36.240Z,100754.00
2018-08-11T22:58:39.865Z,100756.40
2018-08-11T23:03:43.352Z,100752.95
2018-08-11T23:08:46.897Z,100758.33
2018-08-11T23:13:50.341Z,100753.00
2018-08-11T23:18:53.792Z,100749.27
2018-08-11T23:23:57.265Z,100742.75
2018-08-11T23:29:00.854Z,100740.67
2018-08-11T23:34:04.312Z,100741.57
2018-08-11T23:39:08.646Z,100741.84
2018-08-11T23:44:12.217Z,100740.67
2018-08-11T23:49:15.673Z,100733.97
2018-08-11T23:54:19.192Z,100734.83
2018-08-11T23:59:22.744Z,100737.02
